Airfield :
LOGIN :

Register | Disclaimer

   EN    FR    IT 

 










Legend :    VFR   Marginal VFR   IFR   Intensive IFR   Very Intensive IFR
Visi :
Ceiling :
>= 8 km
>= 3000ft
5 to 8 km
1000 to 3000 ft
1500m to 5 km
500 to 1000 ft
800 to 1500m
200 to 500 ft
< 800m
< 200 ft
Symbols :   Thunderstorms  Fog  Heavy snow  Heavy precipitations  Wind > 20 kt
SIGMETs :     Misc.  Thunderstorms  Icing  Turbulence  Mountain Waves  Volcanic Ashes






- Airport Elevation : 47 ft
- IATA code : BDS


LIBR - Casale Arpt. Brindisi

CURRENT METAR :
  • 280620Z 15004KT 110V180 CAVOK 23/16 Q1010

EXPIRED METARs :
  • 280550Z 14003KT 100V170 CAVOK 22/16 Q1010
  • 280520Z 20004KT 120V290 CAVOK 22/15 Q1010
  • 280450Z 11006KT 060V140 9999 FEW045 21/15 Q1010
  • 280420Z 11003KT 040V210 CAVOK 20/15 Q1010
  • 280350Z 18005KT CAVOK 20/15 Q1010

TAF TAF LIBR
Valid from the 28 at 06:00 until the 29 at 06:00 UTC


280500Z 2806/2906 VRB05KT CAVOK
BECMG 2808/2810 14014KT
BECMG 2822/2824 VRB05KT
TEMPO 2902/2906 3000 BR BKN005



MET'MAP, your aeronautical weather chart ! - Copyright ORBIFLY December 2007 - Disclaimer

ORBIFLY MET'MAP TEAM :

Programming & Development : Alexandra Zaïnal
Original concept : Baudouin d'Aumeries
Technical & hardware support : Manuel Goepfert
Assistance : Marc-Olivier Méhu

Contact : metmap@orbifly.com




SOURCES & CREDITS :

   NOAA